createdAt,value
2023-02-24T00:00:04.386Z,0.092
2023-02-24T00:05:04.313Z,0.17500000000000002
2023-02-24T00:10:04.239Z,0.17300000000000001
2023-02-24T00:15:04.240Z,0.147
2023-02-24T00:20:01.219Z,0.121
2023-02-24T00:25:01.191Z,0.127
2023-02-24T00:30:01.173Z,0.123
2023-02-24T00:35:01.193Z,0.124
2023-02-24T00:40:01.317Z,0.114
2023-02-24T00:45:01.210Z,0.037
2023-02-24T00:50:01.232Z,0
2023-02-24T00:55:01.292Z,0
2023-02-24T01:00:01.241Z,0
2023-02-24T01:05:01.226Z,0
2023-02-24T01:10:01.268Z,0.06
2023-02-24T01:15:01.202Z,0.111
2023-02-24T01:20:01.183Z,0.111
2023-02-24T01:25:01.188Z,0.11900000000000001
2023-02-24T01:30:01.187Z,0.12
2023-02-24T01:35:01.218Z,0.146
2023-02-24T01:40:01.158Z,0.17200000000000001
2023-02-24T01:45:01.237Z,0.17300000000000001
2023-02-24T01:50:01.259Z,0.09
2023-02-24T01:55:01.248Z,0
2023-02-24T02:00:01.162Z,0
2023-02-24T02:05:01.182Z,0
2023-02-24T02:10:01.158Z,0
2023-02-24T02:15:01.097Z,0
2023-02-24T02:20:01.137Z,0
2023-02-24T02:25:01.226Z,0
2023-02-24T02:30:01.149Z,0.059000000000000004
2023-02-24T02:35:01.288Z,0.163
2023-02-24T02:40:01.209Z,0.136
2023-02-24T02:45:01.200Z,0.122
2023-02-24T02:50:01.262Z,0.124
2023-02-24T02:55:01.230Z,0.123
2023-02-24T03:00:01.223Z,0.124
2023-02-24T03:05:01.305Z,0.11900000000000001
2023-02-24T03:10:01.206Z,0.009000000000000001
2023-02-24T03:15:01.191Z,0
2023-02-24T03:20:01.247Z,0
2023-02-24T03:25:01.206Z,0
2023-02-24T03:30:01.254Z,0.044
2023-02-24T03:35:01.260Z,0.108
2023-02-24T03:40:01.216Z,0.108
2023-02-24T03:45:02.354Z,0.108
2023-02-24T03:50:01.259Z,0.105
2023-02-24T03:55:01.239Z,0.109
2023-02-24T04:00:01.267Z,0.138
2023-02-24T04:05:01.280Z,0.17500000000000002
2023-02-24T04:10:01.275Z,0.147
2023-02-24T04:15:01.483Z,0
2023-02-24T04:20:01.284Z,0
2023-02-24T04:25:01.271Z,0
2023-02-24T04:30:01.271Z,0
2023-02-24T04:35:01.275Z,0
2023-02-24T04:40:01.260Z,0
2023-02-24T04:45:01.284Z,0
2023-02-24T04:50:01.367Z,0.108
2023-02-24T04:55:01.299Z,0.17300000000000001
2023-02-24T05:00:01.345Z,0.171
2023-02-24T05:05:01.315Z,0.11800000000000001
2023-02-24T05:10:01.309Z,0.127
2023-02-24T05:15:01.347Z,0.124
2023-02-24T05:20:01.328Z,0.122
2023-02-24T05:25:01.365Z,0.123
2023-02-24T05:30:01.290Z,0.10200000000000001
2023-02-24T05:35:01.316Z,0
2023-02-24T05:40:01.384Z,0
2023-02-24T05:45:01.312Z,0
2023-02-24T05:50:01.434Z,0
2023-02-24T05:55:01.379Z,0.095
2023-02-24T06:00:01.473Z,0.11800000000000001
2023-02-24T06:05:01.284Z,0.12
2023-02-24T06:10:01.358Z,0.122
2023-02-24T06:15:01.380Z,0.123
2023-02-24T06:20:01.328Z,0.122
2023-02-24T06:25:01.355Z,0.168
2023-02-24T06:30:01.454Z,0.17500000000000002
2023-02-24T06:35:01.421Z,0.176
2023-02-24T06:40:01.463Z,0.133
2023-02-24T06:45:01.354Z,0.126
2023-02-24T06:50:01.417Z,0.113
2023-02-24T06:55:01.460Z,0.113
2023-02-24T07:00:01.493Z,24.562
2023-02-24T07:05:01.602Z,38.335
2023-02-24T07:10:01.414Z,30.414
2023-02-24T07:15:01.403Z,42.618
2023-02-24T07:20:01.489Z,41.318
2023-02-24T07:25:01.451Z,49.908
2023-02-24T07:30:01.471Z,66.933
2023-02-24T07:35:01.414Z,140.217
2023-02-24T07:40:01.415Z,119.915
2023-02-24T07:45:01.533Z,85.614
2023-02-24T07:50:01.488Z,93.18
2023-02-24T07:55:01.449Z,125.909
2023-02-24T08:00:01.402Z,123.84700000000001
2023-02-24T08:05:01.439Z,102.036
2023-02-24T08:10:01.445Z,84.57900000000001
2023-02-24T08:15:01.499Z,83.531
2023-02-24T08:20:01.553Z,82.425
2023-02-24T08:25:01.553Z,104.078
2023-02-24T08:30:01.470Z,142.209
2023-02-24T08:35:01.493Z,194.598
2023-02-24T08:40:01.476Z,317.641
2023-02-24T08:45:01.562Z,462.507
2023-02-24T08:50:01.505Z,433.063
2023-02-24T08:55:01.549Z,401.522
2023-02-24T09:00:01.560Z,298.824
2023-02-24T09:05:01.777Z,278.23900000000003
2023-02-24T09:10:01.500Z,277.299
2023-02-24T09:15:01.598Z,315.92900000000003
2023-02-24T09:20:01.615Z,330.582
2023-02-24T09:25:01.530Z,322.221
2023-02-24T09:30:01.604Z,292.645
2023-02-24T09:35:01.534Z,292.045
2023-02-24T09:40:01.512Z,359.824
2023-02-24T09:45:01.517Z,329.223
2023-02-24T09:50:01.498Z,419.425
2023-02-24T09:55:01.560Z,394.577
2023-02-24T10:00:01.847Z,330.486
2023-02-24T10:05:01.574Z,320.532
2023-02-24T10:10:01.618Z,405.504
2023-02-24T10:15:01.551Z,526.208
2023-02-24T10:20:01.620Z,486.08500000000004
2023-02-24T10:25:01.529Z,440.156
2023-02-24T10:30:01.570Z,511.372
2023-02-24T10:35:01.578Z,499.404
2023-02-24T10:40:01.577Z,605.8000000000001
2023-02-24T10:45:02.865Z,366.855
2023-02-24T10:50:01.606Z,332.975
2023-02-24T10:55:01.663Z,422.688
2023-02-24T11:00:01.646Z,323.469
2023-02-24T11:05:02.650Z,600.819
2023-02-24T11:10:01.603Z,827.29
2023-02-24T11:15:01.652Z,1062.781
2023-02-24T11:20:01.653Z,1349.598
2023-02-24T11:25:01.966Z,723.677
2023-02-24T11:30:01.632Z,638.1610000000001
2023-02-24T11:35:01.731Z,737.41
2023-02-24T11:40:01.662Z,482.394
2023-02-24T11:45:01.605Z,530.707
2023-02-24T11:50:04.548Z,685.343
2023-02-24T11:55:01.670Z,716.277
2023-02-24T12:00:01.762Z,728.583
2023-02-24T12:05:01.694Z,4090.437
2023-02-24T12:10:14.411Z,3107.0080000000003
2023-02-24T12:15:01.691Z,3174.919
2023-02-24T12:20:01.670Z,3073.454
2023-02-24T12:25:01.695Z,958.1220000000001
2023-02-24T12:30:01.662Z,662.766
2023-02-24T12:35:01.698Z,486.245
2023-02-24T12:40:01.696Z,355.07800000000003
2023-02-24T12:45:01.773Z,279.255
2023-02-24T12:50:01.772Z,142.121
2023-02-24T12:55:01.781Z,169.273
2023-02-24T13:00:01.660Z,160.411
2023-02-24T13:05:01.733Z,362.709
2023-02-24T13:10:01.810Z,1143.67
2023-02-24T13:15:01.743Z,1005.447
2023-02-24T13:20:01.715Z,1217.9950000000001
2023-02-24T13:25:01.756Z,642.95
2023-02-24T13:30:01.712Z,543.289
2023-02-24T13:35:01.742Z,393.925
2023-02-24T13:40:01.766Z,344.148
2023-02-24T13:45:02.337Z,369.13800000000003
2023-02-24T13:50:02.063Z,258.146
2023-02-24T13:55:01.806Z,380.661
2023-02-24T14:00:01.746Z,361.801
2023-02-24T14:05:01.734Z,376.51800000000003
2023-02-24T14:10:01.686Z,336.615
2023-02-24T14:15:01.780Z,455.773
2023-02-24T14:20:01.812Z,422.101
2023-02-24T14:25:01.810Z,528.764
2023-02-24T14:30:02.094Z,496.858
2023-02-24T14:35:01.757Z,453.637
2023-02-24T14:40:01.829Z,141.387
2023-02-24T14:45:01.875Z,41.896
2023-02-24T14:50:01.794Z,29.7
2023-02-24T14:55:01.855Z,33.211
2023-02-24T15:00:01.811Z,39.035000000000004
2023-02-24T15:05:01.779Z,126.33
2023-02-24T15:10:01.820Z,128.784
2023-02-24T15:15:01.861Z,505.806
2023-02-24T15:20:01.851Z,794.432
2023-02-24T15:25:01.900Z,403.685
2023-02-24T15:30:02.005Z,224.94400000000002
2023-02-24T15:35:01.861Z,182.812
2023-02-24T15:40:01.846Z,203.10500000000002
2023-02-24T15:45:01.919Z,152.417
2023-02-24T15:50:01.949Z,120.149
2023-02-24T15:55:01.902Z,56.169000000000004
2023-02-24T16:00:01.924Z,12.711
2023-02-24T16:05:01.866Z,0.061
2023-02-24T16:10:01.941Z,0.003
2023-02-24T16:15:01.830Z,0
2023-02-24T16:20:01.912Z,0
2023-02-24T16:25:02.023Z,0
2023-02-24T16:30:02.043Z,0
2023-02-24T16:35:01.840Z,0
2023-02-24T16:40:01.923Z,0.038
2023-02-24T16:45:01.925Z,0.134
2023-02-24T16:50:01.938Z,0.157
2023-02-24T16:55:02.005Z,0.17200000000000001
2023-02-24T17:00:01.924Z,0.17300000000000001
2023-02-24T17:05:01.933Z,0.152
2023-02-24T17:10:01.946Z,0.128
2023-02-24T17:15:01.906Z,0.126
2023-02-24T17:20:01.929Z,0.125
2023-02-24T17:25:02.055Z,0.068
2023-02-24T17:30:02.182Z,0
2023-02-24T17:35:02.048Z,0
2023-02-24T17:40:02.591Z,0
2023-02-24T17:45:02.147Z,0
2023-02-24T17:50:02.117Z,0.01
2023-02-24T17:55:02.083Z,0.02
2023-02-24T18:00:02.046Z,0.126
2023-02-24T18:05:02.046Z,0.126
2023-02-24T18:10:02.346Z,0.129
2023-02-24T18:15:07.630Z,0.123
2023-02-24T18:20:01.934Z,0.126
2023-02-24T18:25:01.957Z,0.148
2023-02-24T18:30:01.933Z,0.162
2023-02-24T18:35:02.007Z,0.052000000000000005
2023-02-24T18:40:02.036Z,0.002
2023-02-24T18:45:01.979Z,0.004
2023-02-24T18:50:02.024Z,0.001
2023-02-24T18:55:01.996Z,0
2023-02-24T19:00:02.005Z,0
2023-02-24T19:05:02.005Z,0.016
2023-02-24T19:10:02.030Z,0.117
2023-02-24T19:15:02.078Z,0.169
2023-02-24T19:20:02.042Z,0.169
2023-02-24T19:25:02.118Z,0.167
2023-02-24T19:30:02.019Z,0.136
2023-02-24T19:35:02.098Z,0.124
2023-02-24T19:40:02.063Z,0.121
2023-02-24T19:45:02.050Z,0.014
2023-02-24T19:50:02.030Z,0
2023-02-24T19:55:02.083Z,0
2023-02-24T20:00:02.047Z,0
2023-02-24T20:05:02.114Z,0
2023-02-24T20:10:02.091Z,0
2023-02-24T20:15:02.127Z,0
2023-02-24T20:20:02.112Z,0.116
2023-02-24T20:25:02.129Z,0.126
2023-02-24T20:30:02.101Z,0.122
2023-02-24T20:35:02.120Z,0.123
2023-02-24T20:40:02.278Z,0.122
2023-02-24T20:45:02.286Z,0.123
2023-02-24T20:50:02.277Z,0.14100000000000001
2023-02-24T20:55:02.290Z,0.049
2023-02-24T21:00:04.022Z,0
2023-02-24T21:05:02.304Z,0
2023-02-24T21:10:02.292Z,0
2023-02-24T21:15:02.324Z,0
2023-02-24T21:20:02.296Z,0
2023-02-24T21:25:02.286Z,0.062
2023-02-24T21:30:02.251Z,0.10300000000000001
2023-02-24T21:35:02.386Z,0.106
2023-02-24T21:40:02.170Z,0.132
2023-02-24T21:45:02.194Z,0.16
2023-02-24T21:50:02.223Z,0.157
2023-02-24T21:55:02.178Z,0.139
2023-02-24T22:00:02.118Z,0.033
2023-02-24T22:05:02.181Z,0.127
2023-02-24T22:10:02.118Z,0.128
2023-02-24T22:15:02.170Z,0.126
2023-02-24T22:20:02.127Z,0.009000000000000001
2023-02-24T22:25:02.136Z,0
2023-02-24T22:30:02.224Z,0
2023-02-24T22:35:02.104Z,0
2023-02-24T22:40:02.212Z,0
2023-02-24T22:45:02.389Z,0
2023-02-24T22:50:02.310Z,0.002
2023-02-24T22:55:02.226Z,0
2023-02-24T23:00:02.255Z,0
2023-02-24T23:05:02.255Z,0
2023-02-24T23:10:02.277Z,0.004
2023-02-24T23:15:02.237Z,0.134
2023-02-24T23:20:02.254Z,0.17200000000000001
2023-02-24T23:25:02.185Z,0.17
2023-02-24T23:30:02.197Z,0.162
2023-02-24T23:35:02.226Z,0.123
2023-02-24T23:40:02.173Z,0.11900000000000001
2023-02-24T23:45:02.258Z,0.125
2023-02-24T23:50:02.333Z,0.122
2023-02-24T23:55:02.232Z,0.117
